Time;durP1;ratioP1;P1;durP2;ratioP2;P2;SDS_P1;SDS_P2;PMS_P1;PMS_P2;Temp;Humidity;BMP_temperature;BMP_pressure;BME280_temperature;BME280_humidity;BME280_pressure;Samples;Min_cycle;Max_cycle;Signal;HPM_P1;HPM_P2
2021/04/15 00:01:23;;;;;;;;;;;;;;;2.59;66.55;93532.22;5092081;28;19912;-44
2021/04/15 00:03:49;;;;;;;;;;;;;;;2.59;67.04;93526.78;5092002;28;19916;-45
2021/04/15 00:06:16;;;;;;;;;;;;;;;2.66;67.42;93529.00;5091838;28;20375;-45
2021/04/15 00:08:42;;;;;;;;;;;;;;;2.60;67.32;93520.06;5091180;28;19912;-46
2021/04/15 00:11:08;;;;;;;;;;;;;;;2.54;66.92;93519.31;5091649;28;19916;-44
2021/04/15 00:13:37;;;;;;;;;;;;;;;2.59;67.23;93515.88;5091735;28;20405;-45
2021/04/15 00:16:03;;;;;;;;;;;;;;;2.69;66.10;93516.34;5092064;28;19913;-44
2021/04/15 00:18:29;;;;;;;;;;;;;;;2.85;65.64;93519.06;5091734;28;19973;-45
2021/04/15 00:20:54;;;;;;;;;;;;;;;2.72;66.12;93518.84;5091917;28;19919;-45
2021/04/15 00:23:19;;;;;;;;;;;;;;;2.66;67.08;93515.38;5091582;28;19998;-46
2021/04/15 00:25:45;;;;;;;;;;;;;;;2.76;67.03;93513.13;5091696;28;19912;-45
2021/04/15 00:28:10;;;;;;;;;;;;;;;2.78;66.19;93511.41;5095353;28;19918;-45
2021/04/15 00:30:35;;;;;;;;;;;;;;;2.76;66.83;93519.31;5095602;28;20326;-45
2021/04/15 00:33:01;;;;;;;;;;;;;;;2.73;66.10;93522.31;5095766;28;19955;-44
2021/04/15 00:35:26;;;;;;;;;;;;;;;2.66;66.93;93515.38;5095569;28;19923;-45
2021/04/15 00:37:51;;;;;;;;;;;;;;;2.75;66.83;93517.09;5095691;28;20362;-45
2021/04/15 00:40:18;;;;;;;;;;;;;;;2.81;66.58;93515.88;5095153;28;19971;-45
2021/04/15 00:42:43;;;;;;;;;;;;;;;2.76;66.26;93515.84;5084776;28;19912;-44
2021/04/15 00:45:10;;;;;;;;;;;;;;;2.81;66.20;93512.38;5074963;28;19912;-45
2021/04/15 00:47:35;;;;;;;;;;;;;;;2.84;66.61;93505.91;5075106;28;19939;-47
2021/04/15 00:50:02;;;;;;;;;;;;;;;2.85;66.86;93502.72;5075207;28;20415;-46
2021/04/15 00:52:30;;;;;;;;;;;;;;;2.97;66.81;93508.88;5074668;28;19959;-46
2021/04/15 00:54:59;;;;;;;;;;;;;;;3.07;66.10;93510.84;5073882;28;19912;-45
2021/04/15 00:57:31;;;;;;;;;;;;;;;3.11;66.19;93507.13;5074905;28;19912;-46
2021/04/15 00:59:57;;;;;;;;;;;;;;;3.10;65.13;93505.66;5073550;28;20371;-45
2021/04/15 01:02:22;;;;;;;;;;;;;;;3.10;65.38;93502.94;5072044;28;19913;-44
2021/04/15 01:04:49;;;;;;;;;;;;;;;3.18;65.30;93509.34;5073354;28;19913;-45
2021/04/15 01:07:14;;;;;;;;;;;;;;;3.14;65.75;93511.59;5074519;28;20422;-45
2021/04/15 01:09:39;;;;;;;;;;;;;;;3.20;65.27;93506.88;5074477;28;19912;-46
2021/04/15 01:12:08;;;;;;;;;;;;;;;3.24;64.83;93507.34;5074712;28;19912;-45
2021/04/15 01:14:36;;;;;;;;;;;;;;;3.23;65.05;93508.63;5074740;28;20029;-44
2021/04/15 01:17:06;;;;;;;;;;;;;;;3.19;65.46;93510.84;5074462;28;20009;-45
2021/04/15 01:19:43;;;;;;;;;;;;;;;3.20;66.00;93504.16;5073355;28;19913;-45
2021/04/15 01:22:21;;;;;;;;;;;;;;;3.18;65.74;93510.09;5073391;28;19919;-45
2021/04/15 01:25:04;;;;;;;;;;;;;;;3.07;65.71;93499.94;5074182;28;20391;-44
2021/04/15 01:27:42;;;;;;;;;;;;;;;2.93;66.72;93492.03;5073251;28;19934;-44
2021/04/15 01:33:04;;;;;;;;;;;;;;;2.77;67.58;93496.25;5074192;28;20360;-44
2021/04/15 01:35:37;;;;;;;;;;;;;;;2.81;66.93;93498.75;5074172;28;19912;-44
2021/04/15 01:38:07;;;;;;;;;;;;;;;2.54;68.03;93496.78;5072684;28;19920;-45
2021/04/15 01:40:33;;;;;;;;;;;;;;;2.62;68.60;93495.06;5072423;28;20462;-45
2021/04/15 01:43:17;;;;;;;;;;;;;;;2.58;68.40;93486.38;5085095;28;20004;-46
2021/04/15 01:45:44;;;;;;;;;;;;;;;2.65;68.80;93502.97;5094338;28;19919;-44
2021/04/15 01:48:12;;;;;;;;;;;;;;;2.67;67.67;93500.50;5092778;28;19915;-44
2021/04/15 01:50:58;;;;;;;;;;;;;;;2.80;68.04;93505.44;5093074;28;19916;-44
2021/04/15 01:53:33;;;;;;;;;;;;;;;2.78;68.06;93508.66;5091913;28;19912;-45
2021/04/15 01:56:17;;;;;;;;;;;;;;;2.90;67.82;93506.69;5092970;28;19912;-44
2021/04/15 01:58:43;;;;;;;;;;;;;;;2.94;67.43;93507.91;5093776;28;20398;-45
2021/04/15 02:01:12;;;;;;;;;;;;;;;2.98;66.90;93507.66;5093912;28;19916;-45
2021/04/15 02:03:38;;;;;;;;;;;;;;;2.89;66.43;93495.03;5092414;28;19923;-44
2021/04/15 02:06:05;;;;;;;;;;;;;;;2.87;66.03;93499.50;5092686;28;19912;-45
2021/04/15 02:08:31;;;;;;;;;;;;;;;2.75;67.38;93498.75;5092392;28;19919;-45
2021/04/15 02:11:02;;;;;;;;;;;;;;;2.64;67.61;93500.75;5092348;28;20007;-45
2021/04/15 02:13:45;;;;;;;;;;;;;;;2.58;68.56;93497.28;5092575;28;20007;-45
2021/04/15 02:16:19;;;;;;;;;;;;;;;2.57;68.55;93482.16;5092477;28;19919;-44
2021/04/15 02:18:51;;;;;;;;;;;;;;;2.59;68.38;93490.59;5092508;28;19974;-44
2021/04/15 02:21:24;;;;;;;;;;;;;;;2.58;68.79;93484.38;5092079;28;19920;-46
2021/04/15 02:23:51;;;;;;;;;;;;;;;2.56;68.84;93492.31;5092124;28;19917;-44
2021/04/15 02:26:18;;;;;;;;;;;;;;;2.62;69.09;93500.50;5092018;28;19923;-45
2021/04/15 02:28:50;;;;;;;;;;;;;;;2.47;68.72;93508.19;5092028;28;20002;-45
2021/04/15 02:31:25;;;;;;;;;;;;;;;2.51;68.50;93506.72;5093447;28;19942;-44
2021/04/15 02:33:52;;;;;;;;;;;;;;;2.40;68.94;93503.97;5093261;28;19912;-45
2021/04/15 02:36:36;;;;;;;;;;;;;;;2.60;67.68;93506.44;5093026;28;19912;-45
2021/04/15 02:39:05;;;;;;;;;;;;;;;2.50;67.83;93513.38;5093339;28;19912;-46
2021/04/15 02:41:32;;;;;;;;;;;;;;;2.55;67.36;93522.81;5090930;28;19974;-46
2021/04/15 02:44:04;;;;;;;;;;;;;;;2.54;67.66;93513.88;5070343;28;19970;-45
2021/04/15 02:46:32;;;;;;;;;;;;;;;2.60;68.40;93524.78;5071784;28;19912;-44
2021/04/15 02:49:00;;;;;;;;;;;;;;;2.70;68.22;93523.28;5070978;28;20466;-44
2021/04/15 02:51:44;;;;;;;;;;;;;;;2.63;67.83;93516.34;5071209;28;20375;-46
2021/04/15 02:54:10;;;;;;;;;;;;;;;2.67;67.17;93519.56;5072774;28;19913;-45
2021/04/15 02:56:47;;;;;;;;;;;;;;;2.60;67.50;93516.63;5071614;28;19912;-45
2021/04/15 02:59:17;;;;;;;;;;;;;;;2.20;68.28;93515.09;5071434;28;20353;-45
2021/04/15 03:01:43;;;;;;;;;;;;;;;2.36;68.92;93519.06;5071109;28;19959;-45
2021/04/15 03:04:10;;;;;;;;;;;;;;;2.42;70.01;93520.56;5071474;28;19966;-45
2021/04/15 03:06:35;;;;;;;;;;;;;;;2.25;69.03;93527.97;5071135;28;19919;-45
2021/04/15 03:09:05;;;;;;;;;;;;;;;2.34;69.04;93525.00;5071093;28;19999;-45
2021/04/15 03:11:36;;;;;;;;;;;;;;;2.26;69.32;93527.47;5071257;28;19912;-45
2021/04/15 03:14:02;;;;;;;;;;;;;;;2.27;69.13;93528.94;5072596;28;19913;-44
2021/04/15 03:16:32;;;;;;;;;;;;;;;2.31;69.41;93528.72;5072263;28;19912;-45
2021/04/15 03:19:10;;;;;;;;;;;;;;;2.30;70.53;93527.22;5071233;28;19916;-45
2021/04/15 03:21:55;;;;;;;;;;;;;;;2.33;70.13;93536.41;5070873;28;20015;-46
2021/04/15 03:24:22;;;;;;;;;;;;;;;2.36;70.59;93538.16;5070789;28;19920;-45
2021/04/15 03:26:47;;;;;;;;;;;;;;;2.40;70.47;93533.94;5070965;28;19952;-46
2021/04/15 03:29:14;;;;;;;;;;;;;;;2.34;70.80;93538.63;5072058;28;19955;-45
2021/04/15 03:31:44;;;;;;;;;;;;;;;2.35;70.70;93542.84;5069992;28;20038;-45
2021/04/15 03:34:13;;;;;;;;;;;;;;;2.41;70.64;93538.13;5070584;28;19913;-45
2021/04/15 03:36:39;;;;;;;;;;;;;;;2.43;70.17;93537.63;5070761;28;19912;-44
2021/04/15 03:39:28;;;;;;;;;;;;;;;2.48;70.28;93543.09;5071058;28;19920;-47
2021/04/15 03:41:54;;;;;;;;;;;;;;;2.49;70.36;93535.69;5067090;28;19924;-45
2021/04/15 03:44:19;;;;;;;;;;;;;;;2.44;70.58;93539.13;5091167;28;19913;-45
2021/04/15 03:46:47;;;;;;;;;;;;;;;2.37;70.53;93539.63;5092026;28;19912;-44
2021/04/15 03:49:17;;;;;;;;;;;;;;;2.26;71.17;93543.06;5091138;28;19943;-46
2021/04/15 03:51:43;;;;;;;;;;;;;;;2.29;70.41;93547.53;5090860;28;19916;-44
2021/04/15 03:54:10;;;;;;;;;;;;;;;2.51;70.32;93549.56;5091076;28;19941;-45
2021/04/15 03:56:40;;;;;;;;;;;;;;;2.56;69.84;93538.66;5091077;28;19912;-46
2021/04/15 03:59:08;;;;;;;;;;;;;;;2.46;70.06;93539.38;5090822;28;20007;-45
2021/04/15 04:01:36;;;;;;;;;;;;;;;2.35;71.07;93540.13;5091469;28;19916;-45
2021/04/15 04:04:04;;;;;;;;;;;;;;;2.42;70.65;93530.72;5094772;28;20379;-45
2021/04/15 04:06:29;;;;;;;;;;;;;;;2.35;70.72;93520.31;5095933;28;20391;-44
2021/04/15 04:08:59;;;;;;;;;;;;;;;2.25;71.46;93528.69;5095035;28;19919;-47
2021/04/15 04:11:24;;;;;;;;;;;;;;;2.20;71.66;93534.91;5096121;28;19920;-45
2021/04/15 04:13:52;;;;;;;;;;;;;;;2.30;71.23;93533.44;5094483;28;19912;-45
2021/04/15 04:16:22;;;;;;;;;;;;;;;2.33;71.67;93536.41;5094588;28;19918;-45
2021/04/15 04:18:47;;;;;;;;;;;;;;;2.51;71.12;93536.69;5094666;28;19974;-45
2021/04/15 04:21:18;;;;;;;;;;;;;;;2.57;70.29;93536.69;5094675;28;20386;-45
2021/04/15 04:23:48;;;;;;;;;;;;;;;2.48;70.80;93543.09;5094782;28;20306;-44
2021/04/15 04:26:23;;;;;;;;;;;;;;;2.54;70.03;93538.41;5094747;28;19919;-45
2021/04/15 04:28:48;;;;;;;;;;;;;;;2.60;70.61;93538.41;5095621;28;19912;-45
2021/04/15 04:31:18;;;;;;;;;;;;;;;2.54;71.03;93546.56;5095754;28;19947;-45
2021/04/15 04:33:45;;;;;;;;;;;;;;;2.55;71.21;93547.31;5094559;28;19911;-48
2021/04/15 04:36:10;;;;;;;;;;;;;;;2.58;71.30;93552.53;5094326;28;19913;-44
2021/04/15 04:38:36;;;;;;;;;;;;;;;2.60;70.90;93543.88;5094157;28;19953;-45
2021/04/15 04:41:04;;;;;;;;;;;;;;;2.56;71.65;93540.63;5093843;28;19952;-45
2021/04/15 04:43:32;;;;;;;;;;;;;;;2.58;71.34;93538.16;5077383;28;20302;-45
2021/04/15 04:45:58;;;;;;;;;;;;;;;2.70;71.12;93540.41;5074948;28;19916;-48
2021/04/15 04:48:30;;;;;;;;;;;;;;;2.62;70.93;93536.66;5074850;28;20011;-46
2021/04/15 04:51:03;;;;;;;;;;;;;;;2.49;71.63;93536.41;5075110;28;20058;-45
2021/04/15 04:53:30;;;;;;;;;;;;;;;2.37;71.71;93548.53;5073586;28;19912;-45
2021/04/15 04:56:01;;;;;;;;;;;;;;;2.10;72.71;93551.97;5074738;28;20010;-45
2021/04/15 04:58:26;;;;;;;;;;;;;;;2.25;72.54;93547.78;5074773;28;20376;-45
2021/04/15 05:00:53;;;;;;;;;;;;;;;2.35;73.01;93550.28;5073687;28;19923;-46
2021/04/15 05:03:22;;;;;;;;;;;;;;;2.36;72.62;93547.03;5073209;28;20484;-45
2021/04/15 05:05:47;;;;;;;;;;;;;;;2.53;71.59;93541.63;5074528;28;19916;-45
2021/04/15 05:08:17;;;;;;;;;;;;;;;2.66;70.39;93545.38;5072259;28;19912;-45
2021/04/15 05:10:43;;;;;;;;;;;;;;;2.84;69.65;93541.38;5073493;28;19936;-46
2021/04/15 05:13:11;;;;;;;;;;;;;;;2.89;70.59;93543.34;5073027;28;20391;-44
2021/04/15 05:15:37;;;;;;;;;;;;;;;2.92;70.44;93551.28;5073121;28;19924;-45
2021/04/15 05:18:02;;;;;;;;;;;;;;;2.76;70.81;93554.03;5074662;28;19913;-45
2021/04/15 05:20:27;;;;;;;;;;;;;;;2.61;71.07;93546.09;5074611;28;20451;-46
2021/04/15 05:23:11;;;;;;;;;;;;;;;2.76;71.20;93556.75;5073357;28;20284;-46
2021/04/15 05:25:48;;;;;;;;;;;;;;;2.83;70.54;93564.44;5074152;28;19916;-45
2021/04/15 05:28:14;;;;;;;;;;;;;;;3.13;69.36;93572.84;5073013;28;19912;-46
2021/04/15 05:30:40;;;;;;;;;;;;;;;3.08;69.27;93569.63;5073285;28;19913;-46
2021/04/15 05:33:06;;;;;;;;;;;;;;;3.06;70.58;93563.19;5074047;28;19912;-45
2021/04/15 05:35:34;;;;;;;;;;;;;;;3.32;70.19;93573.81;5073123;28;19920;-46
2021/04/15 05:37:59;;;;;;;;;;;;;;;3.64;69.06;93574.97;5073025;28;19946;-45
2021/04/15 05:40:24;;;;;;;;;;;;;;;3.83;68.95;93578.66;5073624;28;19946;-47
2021/04/15 05:42:52;;;;;;;;;;;;;;;4.03;67.80;93564.66;5085034;28;19912;-44
2021/04/15 05:45:18;;;;;;;;;;;;;;;4.34;66.71;93567.00;5092804;28;19920;-47
2021/04/15 05:47:46;;;;;;;;;;;;;;;4.51;65.98;93573.09;5094062;28;19912;-46
2021/04/15 05:50:22;;;;;;;;;;;;;;;4.66;65.96;93574.75;5094269;28;19912;-47
2021/04/15 05:52:56;;;;;;;;;;;;;;;4.76;65.28;93565.00;5092004;28;19930;-45
2021/04/15 05:55:32;;;;;;;;;;;;;;;4.81;65.04;93564.22;5093024;28;19919;-48
2021/04/15 05:58:03;;;;;;;;;;;;;;;4.97;64.50;93558.59;5092675;28;19919;-45
2021/04/15 06:00:31;;;;;;;;;;;;;;;5.29;64.01;93556.84;5092850;28;19923;-47
2021/04/15 06:03:00;;;;;;;;;;;;;;;5.44;62.87;93547.47;5092568;28;20010;-45
2021/04/15 06:05:42;;;;;;;;;;;;;;;5.87;61.53;93548.28;5093964;28;19977;-46
2021/04/15 06:08:08;;;;;;;;;;;;;;;5.78;61.45;93541.13;5092383;28;20002;-45
2021/04/15 06:10:35;;;;;;;;;;;;;;;5.92;61.79;93542.75;5093923;28;19918;-45
2021/04/15 06:13:19;;;;;;;;;;;;;;;6.23;60.43;93549.59;5092642;28;19912;-45
2021/04/15 06:15:47;;;;;;;;;;;;;;;6.71;59.97;93548.69;5093483;28;19981;-46
2021/04/15 06:18:15;;;;;;;;;;;;;;;6.85;58.34;93547.47;5092594;28;19938;-46
2021/04/15 06:20:42;;;;;;;;;;;;;;;7.48;57.35;93554.94;5093338;28;19916;-46
2021/04/15 06:23:11;;;;;;;;;;;;;;;7.67;53.98;93550.09;5093320;28;19951;-47
2021/04/15 06:25:38;;;;;;;;;;;;;;;7.37;54.18;93544.13;5091494;28;19920;-45
2021/04/15 06:28:05;;;;;;;;;;;;;;;7.43;55.09;93551.00;5092360;28;20329;-45
2021/04/15 06:30:35;;;;;;;;;;;;;;;7.58;54.02;93562.22;5092094;28;19973;-45
2021/04/15 06:33:02;;;;;;;;;;;;;;;7.79;55.01;93559.63;5091988;28;19912;-47
2021/04/15 06:35:31;;;;;;;;;;;;;;;7.71;53.70;93558.03;5092230;28;19920;-46
2021/04/15 06:38:02;;;;;;;;;;;;;;;7.82;52.99;93558.53;5091354;28;20010;-45
2021/04/15 06:40:46;;;;;;;;;;;;;;;7.88;53.19;93561.22;5090639;28;19931;-45
2021/04/15 06:43:15;;;;;;;;;;;;;;;7.96;53.35;93546.28;5078729;28;19996;-47
2021/04/15 06:45:41;;;;;;;;;;;;;;;8.16;51.41;93553.91;5071669;28;20347;-48
2021/04/15 06:48:24;;;;;;;;;;;;;;;8.18;51.27;93547.88;5072939;28;19962;-44
2021/04/15 06:50:56;;;;;;;;;;;;;;;8.93;50.46;93545.25;5072930;28;19920;-45
2021/04/15 06:53:44;;;;;;;;;;;;;;;9.18;49.61;93541.63;5072669;28;19912;-46
2021/04/15 06:56:24;;;;;;;;;;;;;;;9.13;48.49;93548.03;5043677;28;19912;-45
2021/04/15 06:59:08;;;;;;;;;;;;;;;9.30;47.61;93550.38;5072697;28;20307;-46
2021/04/15 07:01:47;;;;;;;;;;;;;;;9.83;45.59;93551.53;5072594;28;19916;-47
2021/04/15 07:04:16;;;;;;;;;;;;;;;9.86;44.79;93544.19;5071251;28;19918;-45
2021/04/15 07:06:48;;;;;;;;;;;;;;;9.81;45.16;93551.31;5071209;28;20011;-46
2021/04/15 07:09:34;;;;;;;;;;;;;;;9.38;46.22;93544.94;5069771;28;20306;-45
2021/04/15 07:12:17;;;;;;;;;;;;;;;8.66;47.26;93557.66;5058609;28;19966;-45
2021/04/15 07:14:48;;;;;;;;;;;;;;;8.68;47.79;93552.34;5070379;28;19971;-45
2021/04/15 07:17:32;;;;;;;;;;;;;;;8.37;48.64;93565.75;5085704;28;19924;-45
2021/04/15 07:20:04;;;;;;;;;;;;;;;8.05;50.37;93561.63;5067428;28;20016;-45
2021/04/15 07:22:59;;;;;;;;;;;;;;;8.16;49.57;93569.66;5085646;28;19947;-47
2021/04/15 07:26:02;;;;;;;;;;;;;;;8.08;50.93;93564.03;5049750;28;19921;-46
2021/04/15 07:28:36;;;;;;;;;;;;;;;8.18;50.68;93559.63;5047078;28;19920;-45
2021/04/15 07:31:06;;;;;;;;;;;;;;;7.78;51.85;93562.88;5047130;28;20015;-46
2021/04/15 07:33:41;;;;;;;;;;;;;;;8.19;50.59;93558.31;5049570;28;20338;-46
2021/04/15 07:36:21;;;;;;;;;;;;;;;8.32;48.97;93563.09;5069649;28;19917;-46
2021/04/15 07:39:05;;;;;;;;;;;;;;;8.56;48.79;93560.09;5069761;28;19916;-45
2021/04/15 07:41:39;;;;;;;;;;;;;;;8.72;47.58;93559.00;5069278;28;20420;-48
2021/04/15 07:44:17;;;;;;;;;;;;;;;9.18;47.04;93555.41;5088420;28;20385;-45
2021/04/15 07:46:42;;;;;;;;;;;;;;;9.93;46.26;93552.53;5090068;28;20399;-45
2021/04/15 07:49:16;;;;;;;;;;;;;;;10.64;44.93;93549.03;5089812;28;20390;-47
2021/04/15 07:51:48;;;;;;;;;;;;;;;11.45;41.37;93551.06;5089791;28;19923;-45
2021/04/15 07:54:16;;;;;;;;;;;;;;;11.53;40.89;93551.06;5090074;28;20045;-45
2021/04/15 07:56:41;;;;;;;;;;;;;;;11.54;40.34;93547.75;5089635;28;19923;-45
2021/04/15 07:59:16;;;;;;;;;;;;;;;12.07;39.42;93545.72;5089765;28;19920;-45
2021/04/15 08:01:50;;;;;;;;;;;;;;;12.29;40.14;93548.97;5089971;28;20369;-45
2021/04/15 08:04:34;;;;;;;;;;;;;;;12.51;38.54;93542.66;5089667;28;19916;-47
2021/04/15 08:06:59;;;;;;;;;;;;;;;12.44;38.26;93546.91;5089996;28;19916;-45
2021/04/15 08:09:43;;;;;;;;;;;;;;;11.92;39.08;93550.53;5089272;28;19919;-47
2021/04/15 08:12:17;;;;;;;;;;;;;;;11.92;39.60;93561.59;5089743;28;19916;-46
2021/04/15 08:14:46;;;;;;;;;;;;;;;11.41;40.40;93556.22;5089692;28;19912;-46
2021/04/15 08:17:11;;;;;;;;;;;;;;;10.97;40.82;93563.13;5089537;28;19920;-45
2021/04/15 08:19:42;;;;;;;;;;;;;;;10.56;42.35;93570.38;5086974;28;19984;-45
2021/04/15 08:22:09;;;;;;;;;;;;;;;10.20;43.76;93572.38;5089548;28;20359;-45
2021/04/15 08:24:37;;;;;;;;;;;;;;;10.14;44.53;93566.28;5088286;28;19912;-45
2021/04/15 08:27:05;;;;;;;;;;;;;;;10.27;44.60;93568.19;5089216;28;19946;-47
2021/04/15 08:29:34;;;;;;;;;;;;;;;10.30;43.70;93576.13;5089359;28;19916;-45
2021/04/15 08:32:08;;;;;;;;;;;;;;;10.35;43.13;93572.47;5089063;28;19916;-45
2021/04/15 08:34:56;;;;;;;;;;;;;;;10.31;43.27;93572.06;5089582;28;19951;-45
2021/04/15 08:37:24;;;;;;;;;;;;;;;10.00;43.67;93575.19;5088097;28;20310;-46
2021/04/15 08:39:56;;;;;;;;;;;;;;;9.69;43.13;93561.19;5089350;28;19963;-46
2021/04/15 08:42:33;;;;;;;;;;;;;;;9.81;43.36;93553.38;5082109;28;19921;-45
2021/04/15 08:45:14;;;;;;;;;;;;;;;9.66;42.45;93556.00;5068970;28;20050;-45
2021/04/15 08:47:57;;;;;;;;;;;;;;;9.21;44.56;93563.88;5068790;28;20022;-45
2021/04/15 08:50:44;;;;;;;;;;;;;;;8.57;46.73;93580.84;5071276;28;19912;-45
2021/04/15 08:53:27;;;;;;;;;;;;;;;8.00;48.04;93570.72;5071221;28;19963;-46
2021/04/15 08:56:12;;;;;;;;;;;;;;;7.89;49.23;93570.91;5071037;28;19923;-47
2021/04/15 08:58:57;;;;;;;;;;;;;;;7.79;49.96;93570.63;5071855;28;20308;-45
2021/04/15 09:01:28;;;;;;;;;;;;;;;7.53;51.71;93576.81;5072444;28;20006;-45
2021/04/15 09:04:12;;;;;;;;;;;;;;;7.70;50.26;93581.28;5072476;28;19923;-45
2021/04/15 09:06:37;;;;;;;;;;;;;;;7.70;50.13;93579.28;5072384;28;19916;-45
2021/04/15 09:09:06;;;;;;;;;;;;;;;7.67;50.40;93580.31;5078112;28;19999;-46
2021/04/15 09:11:38;;;;;;;;;;;;;;;7.78;49.97;93580.13;5093486;28;19912;-46
2021/04/15 09:14:03;;;;;;;;;;;;;;;7.69;50.66;93579.81;5095074;28;19912;-45
2021/04/15 09:16:38;;;;;;;;;;;;;;;7.60;50.92;93576.19;5094677;28;19965;-46
2021/04/15 09:19:16;;;;;;;;;;;;;;;7.93;49.08;93572.09;5093776;28;20339;-46
2021/04/15 09:22:00;;;;;;;;;;;;;;;7.88;49.70;93572.94;5094443;28;19912;-45
2021/04/15 09:24:25;;;;;;;;;;;;;;;8.11;48.49;93565.00;5094580;28;19935;-46
2021/04/15 09:27:09;;;;;;;;;;;;;;;8.46;47.59;93559.06;5094844;28;19912;-45
2021/04/15 09:29:34;;;;;;;;;;;;;;;8.45;47.19;93573.34;5094345;28;19976;-46
2021/04/15 09:32:02;;;;;;;;;;;;;;;8.60;46.10;93566.00;5094447;28;19916;-46
2021/04/15 09:34:33;;;;;;;;;;;;;;;8.83;46.43;93569.78;5094650;28;19912;-47
2021/04/15 09:37:25;;;;;;;;;;;;;;;9.16;46.27;93565.50;5094288;28;20391;-46
2021/04/15 09:40:10;;;;;;;;;;;;;;;9.24;43.71;93562.81;5070377;28;20413;-45
2021/04/15 09:42:37;;;;;;;;;;;;;;;9.70;42.87;93557.13;5092959;28;19912;-46
2021/04/15 09:45:02;;;;;;;;;;;;;;;9.94;42.09;93558.75;5094477;28;19912;-46
2021/04/15 09:47:31;;;;;;;;;;;;;;;10.14;42.94;93548.97;5093990;28;19912;-45
2021/04/15 09:50:19;;;;;;;;;;;;;;;10.36;40.46;93545.59;5093027;28;19912;-48
2021/04/15 09:52:48;;;;;;;;;;;;;;;10.31;40.68;93546.53;5093860;28;19912;-47
2021/04/15 09:55:20;;;;;;;;;;;;;;;10.25;40.09;93543.91;5093052;28;19959;-47
2021/04/15 09:57:49;;;;;;;;;;;;;;;10.60;39.99;93547.91;5093906;28;19912;-47
2021/04/15 10:00:16;;;;;;;;;;;;;;;10.91;38.92;93541.22;5093503;28;19916;-47
2021/04/15 10:02:44;;;;;;;;;;;;;;;10.71;40.42;93535.81;5092606;28;19965;-46
2021/04/15 10:05:12;;;;;;;;;;;;;;;11.07;39.68;93528.91;5093779;28;19951;-47
2021/04/15 10:07:48;;;;;;;;;;;;;;;11.31;38.57;93533.91;5092717;28;20311;-45
2021/04/15 10:10:19;;;;;;;;;;;;;;;11.30;37.95;93535.19;5092742;28;19943;-47
2021/04/15 10:12:56;;;;;;;;;;;;;;;11.35;38.45;93525.25;5091439;28;19912;-46
2021/04/15 10:15:21;;;;;;;;;;;;;;;11.31;38.13;93524.88;5093518;28;20314;-46
2021/04/15 10:17:59;;;;;;;;;;;;;;;10.97;39.08;93525.22;5093789;28;20007;-46
2021/04/15 10:20:30;;;;;;;;;;;;;;;10.65;39.79;93522.91;5093399;28;19970;-46
2021/04/15 10:23:04;;;;;;;;;;;;;;;10.65;39.32;93516.66;5092411;28;19912;-45
2021/04/15 10:25:30;;;;;;;;;;;;;;;11.31;38.70;93519.34;5092125;28;19912;-46
2021/04/15 10:28:34;;;;;;;;;;;;;;;11.47;37.75;93515.31;5092157;28;20375;-48
2021/04/15 10:31:02;;;;;;;;;;;;;;;11.64;36.29;93511.97;5031114;28;19971;-46
2021/04/15 10:33:32;;;;;;;;;;;;;;;11.63;36.50;93510.53;5029221;28;20374;-46
2021/04/15 10:36:12;;;;;;;;;;;;;;;11.28;37.07;93510.13;5062486;28;20394;-46
2021/04/15 10:38:56;;;;;;;;;;;;;;;11.40;37.62;93514.03;5092252;28;19915;-47
2021/04/15 10:41:25;;;;;;;;;;;;;;;11.16;37.63;93516.56;5092680;28;20037;-46
2021/04/15 10:44:09;;;;;;;;;;;;;;;10.94;37.36;93504.19;5092904;28;19920;-45
2021/04/15 10:46:44;;;;;;;;;;;;;;;11.05;38.06;93514.16;5092955;28;19919;-48
2021/04/15 10:49:25;;;;;;;;;;;;;;;11.22;36.98;93509.56;5093088;28;19951;-46
2021/04/15 10:51:54;;;;;;;;;;;;;;;10.90;38.21;93516.88;5092935;28;19916;-45
2021/04/15 10:54:24;;;;;;;;;;;;;;;11.09;36.43;93509.75;5091561;28;19912;-46
2021/04/15 10:57:01;;;;;;;;;;;;;;;11.55;36.38;93504.22;5091680;28;19912;-46
2021/04/15 10:59:35;;;;;;;;;;;;;;;12.21;34.34;93513.03;5091467;28;19912;-46
2021/04/15 11:02:10;;;;;;;;;;;;;;;13.35;32.06;93502.13;5092954;28;19916;-47
2021/04/15 11:04:35;;;;;;;;;;;;;;;13.52;33.54;93508.47;5090104;28;19952;-46
2021/04/15 11:07:06;;;;;;;;;;;;;;;14.61;31.08;93489.66;5092900;28;19919;-46
2021/04/15 11:09:35;;;;;;;;;;;;;;;15.23;29.79;93491.03;5091640;28;19988;-45
2021/04/15 11:12:04;;;;;;;;;;;;;;;15.22;30.05;93486.06;5091224;28;19912;-46
2021/04/15 11:14:35;;;;;;;;;;;;;;;14.93;29.92;93489.44;5092466;28;19912;-47
2021/04/15 11:17:02;;;;;;;;;;;;;;;14.03;33.48;93490.47;5092503;28;20002;-45
2021/04/15 11:19:28;;;;;;;;;;;;;;;14.04;32.69;93500.25;5091128;28;19916;-45
2021/04/15 11:21:56;;;;;;;;;;;;;;;13.41;33.77;93502.63;5091204;28;19916;-45
2021/04/15 11:24:30;;;;;;;;;;;;;;;13.57;32.00;93501.97;5091144;28;19912;-45
2021/04/15 11:27:03;;;;;;;;;;;;;;;13.39;33.84;93502.47;5092371;28;19969;-47
2021/04/15 11:29:28;;;;;;;;;;;;;;;13.06;33.31;93501.75;5092514;28;20360;-46
2021/04/15 11:31:54;;;;;;;;;;;;;;;13.91;33.01;93492.22;5092536;28;19915;-46
2021/04/15 11:34:24;;;;;;;;;;;;;;;14.25;30.16;93490.22;5091055;28;20306;-45
2021/04/15 11:36:55;;;;;;;;;;;;;;;13.87;30.37;93491.91;5092536;28;19918;-45
2021/04/15 11:39:23;;;;;;;;;;;;;;;13.51;32.06;93501.44;5091785;28;19913;-45
2021/04/15 11:41:51;;;;;;;;;;;;;;;13.68;34.37;93507.06;5089760;28;19919;-47
2021/04/15 11:44:27;;;;;;;;;;;;;;;13.56;30.46;93491.44;5072248;28;20283;-46
2021/04/15 11:46:57;;;;;;;;;;;;;;;13.13;31.84;93486.38;5071121;28;19913;-45
2021/04/15 11:49:26;;;;;;;;;;;;;;;13.82;33.07;93496.38;5070625;28;19912;-46
2021/04/15 11:51:59;;;;;;;;;;;;;;;14.21;30.90;93480.81;5072211;28;20357;-46
2021/04/15 11:54:35;;;;;;;;;;;;;;;14.74;30.19;93472.63;5070671;28;19919;-47
2021/04/15 11:57:18;;;;;;;;;;;;;;;14.64;28.60;93471.09;5072052;28;19912;-45
2021/04/15 11:59:44;;;;;;;;;;;;;;;14.24;30.34;93471.34;5072016;28;19919;-47
2021/04/15 12:02:16;;;;;;;;;;;;;;;14.73;28.47;93460.03;5071749;28;19913;-49
2021/04/15 12:04:42;;;;;;;;;;;;;;;14.34;29.50;93449.97;5072076;28;19962;-46
2021/04/15 12:07:27;;;;;;;;;;;;;;;13.75;31.61;93457.63;5070905;28;19920;-46
2021/04/15 12:09:55;;;;;;;;;;;;;;;14.08;31.00;93445.78;5071230;28;19919;-45
2021/04/15 12:12:32;;;;;;;;;;;;;;;14.25;30.08;93447.84;5070478;28;19912;-46
2021/04/15 12:14:58;;;;;;;;;;;;;;;14.11;29.80;93435.59;5071623;28;20015;-45
2021/04/15 12:17:42;;;;;;;;;;;;;;;13.63;31.82;93435.88;5071515;28;20007;-46
2021/04/15 12:20:14;;;;;;;;;;;;;;;14.05;31.15;93437.88;5071538;28;19939;-46
2021/04/15 12:22:59;;;;;;;;;;;;;;;14.19;29.98;93442.53;5071713;28;19917;-46
2021/04/15 12:25:27;;;;;;;;;;;;;;;14.00;33.06;93430.53;5075522;28;19912;-46
2021/04/15 12:28:13;;;;;;;;;;;;;;;13.95;30.74;93445.38;5075371;28;19916;-47
2021/04/15 12:30:39;;;;;;;;;;;;;;;14.02;30.56;93452.88;5074101;28;19919;-46
2021/04/15 12:33:07;;;;;;;;;;;;;;;13.75;30.27;93454.84;5075538;28;19913;-46
2021/04/15 12:35:51;;;;;;;;;;;;;;;13.55;30.02;93451.88;5075432;28;20017;-45
2021/04/15 12:38:22;;;;;;;;;;;;;;;12.59;31.67;93440.88;5075102;28;19913;-45
2021/04/15 12:40:51;;;;;;;;;;;;;;;12.94;31.31;93448.06;5074934;28;20300;-44
2021/04/15 12:43:24;;;;;;;;;;;;;;;12.80;32.06;93447.56;5067273;28;19968;-48
2021/04/15 12:46:08;;;;;;;;;;;;;;;12.90;32.77;93436.63;5078151;28;19912;-46
2021/04/15 12:48:42;;;;;;;;;;;;;;;13.02;32.61;93445.97;5095210;28;19912;-47
2021/04/15 12:51:07;;;;;;;;;;;;;;;12.74;33.03;93441.53;5077093;28;19923;-46
2021/04/15 12:53:34;;;;;;;;;;;;;;;12.55;32.29;93444.03;5076922;28;19912;-47
2021/04/15 12:55:59;;;;;;;;;;;;;;;12.66;34.00;93434.56;5077256;28;19912;-47
2021/04/15 12:58:25;;;;;;;;;;;;;;;12.47;34.72;93439.84;5077359;28;19934;-46
2021/04/15 13:00:53;;;;;;;;;;;;;;;12.45;33.63;93431.34;5095194;28;19924;-45
2021/04/15 13:03:21;;;;;;;;;;;;;;;12.42;34.27;93435.25;5076837;28;20004;-45
2021/04/15 13:05:51;;;;;;;;;;;;;;;12.30;32.93;93432.13;5095249;28;20371;-47
2021/04/15 13:08:39;;;;;;;;;;;;;;;12.28;33.23;93425.72;5094821;28;20037;-46
2021/04/15 13:11:07;;;;;;;;;;;;;;;12.17;32.47;93424.09;5094832;28;20065;-45
2021/04/15 13:13:47;;;;;;;;;;;;;;;11.92;33.01;93421.22;5094656;28;20391;-46
2021/04/15 13:16:30;;;;;;;;;;;;;;;11.73;33.47;93429.22;5095049;28;20314;-46
2021/04/15 13:18:56;;;;;;;;;;;;;;;11.67;34.22;93417.63;5094494;28;19912;-45